sensor_id;sensor_type;location;lat;lon;timestamp;pressure;altitude;pressure_sealevel;temperature;humidity
37694;BME280;23531;50.122;8.644;2023-03-01T00:00:05;101732.03;;;2.63;52.83
37694;BME280;23531;50.122;8.644;2023-03-01T00:02:08;101734.13;;;2.48;53.31
37694;BME280;23531;50.122;8.644;2023-03-01T00:04:09;101734.56;;;2.33;54.02
37694;BME280;23531;50.122;8.644;2023-03-01T00:06:11;101733.84;;;2.19;54.46
37694;BME280;23531;50.122;8.644;2023-03-01T00:08:13;101733.91;;;2.40;54.46
37694;BME280;23531;50.122;8.644;2023-03-01T00:10:14;101739.44;;;2.60;54.08
37694;BME280;23531;50.122;8.644;2023-03-01T00:12:15;101727.97;;;2.59;53.74
37694;BME280;23531;50.122;8.644;2023-03-01T00:14:16;101738.72;;;2.78;53.46
37694;BME280;23531;50.122;8.644;2023-03-01T00:16:18;101732.47;;;2.79;52.99
37694;BME280;23531;50.122;8.644;2023-03-01T00:18:20;101733.50;;;2.88;53.05
37694;BME280;23531;50.122;8.644;2023-03-01T00:20:22;101738.03;;;2.97;52.64
37694;BME280;23531;50.122;8.644;2023-03-01T00:22:25;101737.19;;;2.97;52.50
37694;BME280;23531;50.122;8.644;2023-03-01T00:24:28;101735.63;;;2.94;52.87
37694;BME280;23531;50.122;8.644;2023-03-01T00:26:29;101730.19;;;2.96;52.57
37694;BME280;23531;50.122;8.644;2023-03-01T00:28:30;101741.28;;;2.80;52.60
37694;BME280;23531;50.122;8.644;2023-03-01T00:30:32;101732.56;;;2.78;52.69
37694;BME280;23531;50.122;8.644;2023-03-01T00:32:33;101727.34;;;2.87;53.19
37694;BME280;23531;50.122;8.644;2023-03-01T00:34:35;101722.81;;;2.99;52.59
37694;BME280;23531;50.122;8.644;2023-03-01T00:36:36;101715.94;;;2.97;52.67
37694;BME280;23531;50.122;8.644;2023-03-01T00:38:40;101721.06;;;2.88;53.00
37694;BME280;23531;50.122;8.644;2023-03-01T00:40:42;101719.00;;;2.92;52.58
37694;BME280;23531;50.122;8.644;2023-03-01T00:42:44;101713.34;;;2.85;52.93
37694;BME280;23531;50.122;8.644;2023-03-01T00:44:45;101706.13;;;2.55;53.13
37694;BME280;23531;50.122;8.644;2023-03-01T00:46:46;101702.38;;;2.58;53.59
37694;BME280;23531;50.122;8.644;2023-03-01T00:48:47;101697.25;;;2.66;53.42
37694;BME280;23531;50.122;8.644;2023-03-01T00:50:49;101703.84;;;2.72;53.13
37694;BME280;23531;50.122;8.644;2023-03-01T00:52:51;101706.88;;;2.78;53.24
37694;BME280;23531;50.122;8.644;2023-03-01T00:54:54;101702.28;;;2.80;52.88
37694;BME280;23531;50.122;8.644;2023-03-01T00:56:56;101701.16;;;2.83;53.23
37694;BME280;23531;50.122;8.644;2023-03-01T00:58:57;101699.56;;;2.91;52.62
37694;BME280;23531;50.122;8.644;2023-03-01T01:00:58;101701.25;;;2.92;52.61
37694;BME280;23531;50.122;8.644;2023-03-01T01:03:00;101705.72;;;2.92;52.55
37694;BME280;23531;50.122;8.644;2023-03-01T01:05:01;101706.88;;;2.99;52.93
37694;BME280;23531;50.122;8.644;2023-03-01T01:07:02;101702.59;;;2.87;52.64
37694;BME280;23531;50.122;8.644;2023-03-01T01:09:05;101702.97;;;2.82;52.97
37694;BME280;23531;50.122;8.644;2023-03-01T01:11:09;101697.22;;;2.77;53.04
37694;BME280;23531;50.122;8.644;2023-03-01T01:13:11;101685.66;;;2.46;53.42
37694;BME280;23531;50.122;8.644;2023-03-01T01:15:12;101688.06;;;2.38;54.03
37694;BME280;23531;50.122;8.644;2023-03-01T01:17:16;101679.81;;;2.21;54.84
37694;BME280;23531;50.122;8.644;2023-03-01T01:19:17;101674.84;;;2.27;54.76
37694;BME280;23531;50.122;8.644;2023-03-01T01:21:20;101679.41;;;2.36;54.56
37694;BME280;23531;50.122;8.644;2023-03-01T01:23:22;101673.34;;;2.45;54.54
37694;BME280;23531;50.122;8.644;2023-03-01T01:25:24;101671.41;;;2.47;54.50
37694;BME280;23531;50.122;8.644;2023-03-01T01:27:27;101667.22;;;2.34;54.69
37694;BME280;23531;50.122;8.644;2023-03-01T01:29:28;101663.94;;;2.41;54.71
37694;BME280;23531;50.122;8.644;2023-03-01T01:31:29;101650.72;;;2.51;54.54
37694;BME280;23531;50.122;8.644;2023-03-01T01:33:31;101653.75;;;2.58;54.25
37694;BME280;23531;50.122;8.644;2023-03-01T01:35:32;101649.44;;;2.45;54.63
37694;BME280;23531;50.122;8.644;2023-03-01T01:37:33;101643.41;;;2.43;54.53
37694;BME280;23531;50.122;8.644;2023-03-01T01:39:34;101639.03;;;2.53;54.50
37694;BME280;23531;50.122;8.644;2023-03-01T01:41:36;101646.06;;;2.43;54.44
37694;BME280;23531;50.122;8.644;2023-03-01T01:43:40;101642.56;;;2.43;54.53
37694;BME280;23531;50.122;8.644;2023-03-01T01:45:41;101651.13;;;2.46;54.63
37694;BME280;23531;50.122;8.644;2023-03-01T01:47:43;101645.19;;;2.54;54.52
37694;BME280;23531;50.122;8.644;2023-03-01T01:49:48;101648.94;;;2.72;54.49
37694;BME280;23531;50.122;8.644;2023-03-01T01:51:53;101645.38;;;2.83;53.75
37694;BME280;23531;50.122;8.644;2023-03-01T01:53:58;101660.88;;;2.78;53.89
37694;BME280;23531;50.122;8.644;2023-03-01T01:56:00;101657.75;;;2.73;53.66
37694;BME280;23531;50.122;8.644;2023-03-01T01:58:02;101657.63;;;2.74;53.76
37694;BME280;23531;50.122;8.644;2023-03-01T02:00:08;101656.34;;;2.69;53.62
37694;BME280;23531;50.122;8.644;2023-03-01T02:02:11;101653.16;;;2.75;53.97
37694;BME280;23531;50.122;8.644;2023-03-01T02:04:12;101653.16;;;2.75;54.15
37694;BME280;23531;50.122;8.644;2023-03-01T02:06:16;101653.41;;;2.72;53.85
37694;BME280;23531;50.122;8.644;2023-03-01T02:08:19;101660.28;;;2.74;53.85
37694;BME280;23531;50.122;8.644;2023-03-01T02:10:20;101663.81;;;2.43;53.71
37694;BME280;23531;50.122;8.644;2023-03-01T02:12:23;101657.91;;;2.39;54.84
37694;BME280;23531;50.122;8.644;2023-03-01T02:14:25;101653.16;;;2.54;54.15
37694;BME280;23531;50.122;8.644;2023-03-01T02:16:27;101666.50;;;2.64;54.53
37694;BME280;23531;50.122;8.644;2023-03-01T02:18:29;101658.53;;;2.64;54.53
37694;BME280;23531;50.122;8.644;2023-03-01T02:20:32;101653.41;;;2.19;54.94
37694;BME280;23531;50.122;8.644;2023-03-01T02:22:35;101650.78;;;2.40;55.04
37694;BME280;23531;50.122;8.644;2023-03-01T02:24:39;101650.13;;;2.59;55.11
37694;BME280;23531;50.122;8.644;2023-03-01T02:26:46;101638.91;;;2.55;54.85
37694;BME280;23531;50.122;8.644;2023-03-01T02:28:51;101640.97;;;2.51;54.46
37694;BME280;23531;50.122;8.644;2023-03-01T02:30:52;101632.72;;;2.34;54.89
37694;BME280;23531;50.122;8.644;2023-03-01T02:33:11;101639.13;;;1.99;55.86
37694;BME280;23531;50.122;8.644;2023-03-01T02:35:13;101634.19;;;2.27;55.84
37694;BME280;23531;50.122;8.644;2023-03-01T02:37:15;101629.59;;;2.29;55.59
37694;BME280;23531;50.122;8.644;2023-03-01T02:39:21;101628.38;;;2.33;55.32
37694;BME280;23531;50.122;8.644;2023-03-01T02:41:24;101617.13;;;2.40;55.25
37694;BME280;23531;50.122;8.644;2023-03-01T02:43:27;101624.91;;;2.53;55.30
37694;BME280;23531;50.122;8.644;2023-03-01T02:45:31;101623.69;;;2.57;54.85
37694;BME280;23531;50.122;8.644;2023-03-01T02:47:32;101619.47;;;2.54;54.50
37694;BME280;23531;50.122;8.644;2023-03-01T02:49:35;101609.88;;;2.42;54.69
37694;BME280;23531;50.122;8.644;2023-03-01T02:51:41;101616.63;;;2.46;54.79
37694;BME280;23531;50.122;8.644;2023-03-01T02:53:45;101601.84;;;2.33;54.74
37694;BME280;23531;50.122;8.644;2023-03-01T02:55:50;101606.28;;;2.11;55.29
37694;BME280;23531;50.122;8.644;2023-03-01T02:57:51;101602.81;;;2.32;55.33
37694;BME280;23531;50.122;8.644;2023-03-01T02:59:53;101600.34;;;2.40;55.13
37694;BME280;23531;50.122;8.644;2023-03-01T03:01:56;101600.09;;;2.43;55.02
37694;BME280;23531;50.122;8.644;2023-03-01T03:03:59;101600.16;;;2.52;54.98
37694;BME280;23531;50.122;8.644;2023-03-01T03:06:01;101599.06;;;2.55;54.79
37694;BME280;23531;50.122;8.644;2023-03-01T03:08:02;101592.91;;;2.54;54.49
37694;BME280;23531;50.122;8.644;2023-03-01T03:10:04;101596.28;;;2.57;54.70
37694;BME280;23531;50.122;8.644;2023-03-01T03:12:06;101589.47;;;2.43;54.37
37694;BME280;23531;50.122;8.644;2023-03-01T03:14:07;101584.94;;;2.34;54.81
37694;BME280;23531;50.122;8.644;2023-03-01T03:16:12;101578.03;;;2.42;54.93
37694;BME280;23531;50.122;8.644;2023-03-01T03:18:15;101580.44;;;2.45;54.42
37694;BME280;23531;50.122;8.644;2023-03-01T03:20:18;101584.28;;;2.21;54.85
37694;BME280;23531;50.122;8.644;2023-03-01T03:22:20;101575.06;;;2.36;55.07
37694;BME280;23531;50.122;8.644;2023-03-01T03:24:21;101577.78;;;2.45;54.49
37694;BME280;23531;50.122;8.644;2023-03-01T03:26:22;101571.44;;;2.37;54.76
37694;BME280;23531;50.122;8.644;2023-03-01T03:28:23;101571.28;;;2.38;54.65
37694;BME280;23531;50.122;8.644;2023-03-01T03:30:25;101567.06;;;2.15;55.24
37694;BME280;23531;50.122;8.644;2023-03-01T03:32:27;101572.00;;;2.19;55.58
37694;BME280;23531;50.122;8.644;2023-03-01T03:34:30;101573.16;;;2.27;55.47
37694;BME280;23531;50.122;8.644;2023-03-01T03:36:31;101569.72;;;2.15;55.57
37694;BME280;23531;50.122;8.644;2023-03-01T03:38:32;101559.56;;;2.20;55.48
37694;BME280;23531;50.122;8.644;2023-03-01T03:40:33;101562.28;;;2.09;55.61
37694;BME280;23531;50.122;8.644;2023-03-01T03:42:35;101558.00;;;2.17;55.27
37694;BME280;23531;50.122;8.644;2023-03-01T03:44:36;101552.13;;;2.14;55.24
37694;BME280;23531;50.122;8.644;2023-03-01T03:46:37;101553.28;;;2.21;55.57
37694;BME280;23531;50.122;8.644;2023-03-01T03:48:39;101549.53;;;2.24;55.40
37694;BME280;23531;50.122;8.644;2023-03-01T03:50:46;101545.44;;;2.19;55.01
37694;BME280;23531;50.122;8.644;2023-03-01T03:52:48;101549.19;;;2.17;54.94
37694;BME280;23531;50.122;8.644;2023-03-01T03:54:49;101554.50;;;2.17;55.28
37694;BME280;23531;50.122;8.644;2023-03-01T03:56:50;101546.66;;;2.15;55.36
37694;BME280;23531;50.122;8.644;2023-03-01T03:58:51;101545.97;;;2.13;55.27
37694;BME280;23531;50.122;8.644;2023-03-01T04:00:53;101556.59;;;2.13;55.37
37694;BME280;23531;50.122;8.644;2023-03-01T04:02:56;101549.81;;;1.89;55.72
37694;BME280;23531;50.122;8.644;2023-03-01T04:04:57;101556.78;;;2.01;55.71
37694;BME280;23531;50.122;8.644;2023-03-01T04:06:59;101554.00;;;2.02;55.66
37694;BME280;23531;50.122;8.644;2023-03-01T04:09:01;101552.63;;;2.08;55.75
37694;BME280;23531;50.122;8.644;2023-03-01T04:11:03;101547.91;;;2.11;55.51
37694;BME280;23531;50.122;8.644;2023-03-01T04:13:19;101547.91;;;2.11;55.50
37694;BME280;23531;50.122;8.644;2023-03-01T04:15:21;101558.13;;;2.16;55.42
37694;BME280;23531;50.122;8.644;2023-03-01T04:17:24;101563.56;;;2.14;55.11
37694;BME280;23531;50.122;8.644;2023-03-01T04:19:25;101566.56;;;2.21;55.31
37694;BME280;23531;50.122;8.644;2023-03-01T04:21:27;101559.94;;;2.15;55.23
37694;BME280;23531;50.122;8.644;2023-03-01T04:23:29;101560.53;;;2.19;55.33
37694;BME280;23531;50.122;8.644;2023-03-01T04:25:30;101558.69;;;1.99;55.50
37694;BME280;23531;50.122;8.644;2023-03-01T04:27:32;101562.78;;;2.03;55.69
37694;BME280;23531;50.122;8.644;2023-03-01T04:29:33;101556.50;;;2.04;55.88
37694;BME280;23531;50.122;8.644;2023-03-01T04:31:35;101559.88;;;2.06;55.51
37694;BME280;23531;50.122;8.644;2023-03-01T04:33:36;101560.47;;;2.09;55.44
37694;BME280;23531;50.122;8.644;2023-03-01T04:35:37;101557.22;;;2.06;55.62
37694;BME280;23531;50.122;8.644;2023-03-01T04:37:40;101559.66;;;1.98;55.41
37694;BME280;23531;50.122;8.644;2023-03-01T04:39:43;101555.31;;;1.97;55.55
37694;BME280;23531;50.122;8.644;2023-03-01T04:41:45;101550.69;;;2.10;55.90
37694;BME280;23531;50.122;8.644;2023-03-01T04:43:47;101557.56;;;2.12;55.50
37694;BME280;23531;50.122;8.644;2023-03-01T04:45:49;101552.88;;;2.05;55.34
37694;BME280;23531;50.122;8.644;2023-03-01T04:47:50;101544.72;;;1.97;55.70
37694;BME280;23531;50.122;8.644;2023-03-01T04:49:52;101545.44;;;1.99;55.88
37694;BME280;23531;50.122;8.644;2023-03-01T04:51:53;101542.66;;;2.00;55.75
37694;BME280;23531;50.122;8.644;2023-03-01T04:53:54;101541.81;;;2.00;55.73
37694;BME280;23531;50.122;8.644;2023-03-01T04:55:57;101543.63;;;1.99;55.75
37694;BME280;23531;50.122;8.644;2023-03-01T04:57:59;101542.78;;;1.99;56.01
37694;BME280;23531;50.122;8.644;2023-03-01T05:00:00;101548.88;;;2.10;56.04
37694;BME280;23531;50.122;8.644;2023-03-01T05:02:05;101547.16;;;1.89;55.83
37694;BME280;23531;50.122;8.644;2023-03-01T05:04:07;101539.69;;;1.82;55.91
37694;BME280;23531;50.122;8.644;2023-03-01T05:06:13;101542.94;;;1.86;56.01
37694;BME280;23531;50.122;8.644;2023-03-01T05:08:15;101540.41;;;1.85;56.09
37694;BME280;23531;50.122;8.644;2023-03-01T05:10:18;101538.84;;;1.82;56.05
37694;BME280;23531;50.122;8.644;2023-03-01T05:12:21;101538.63;;;1.85;56.43
37694;BME280;23531;50.122;8.644;2023-03-01T05:14:22;101535.13;;;1.85;56.41
37694;BME280;23531;50.122;8.644;2023-03-01T05:16:23;101534.63;;;1.91;56.38
37694;BME280;23531;50.122;8.644;2023-03-01T05:18:25;101537.97;;;1.93;56.26
37694;BME280;23531;50.122;8.644;2023-03-01T05:20:26;101529.84;;;1.73;56.44
37694;BME280;23531;50.122;8.644;2023-03-01T05:22:28;101534.44;;;1.71;56.36
37694;BME280;23531;50.122;8.644;2023-03-01T05:24:30;101545.31;;;1.68;56.54
37694;BME280;23531;50.122;8.644;2023-03-01T05:26:32;101537.56;;;1.76;56.38
37694;BME280;23531;50.122;8.644;2023-03-01T05:28:34;101537.00;;;1.62;56.49
37694;BME280;23531;50.122;8.644;2023-03-01T05:30:37;101541.69;;;1.58;57.38
37694;BME280;23531;50.122;8.644;2023-03-01T05:32:40;101552.00;;;1.83;56.75
37694;BME280;23531;50.122;8.644;2023-03-01T05:34:43;101544.16;;;1.82;56.73
37694;BME280;23531;50.122;8.644;2023-03-01T05:36:46;101549.47;;;1.82;56.73
37694;BME280;23531;50.122;8.644;2023-03-01T05:38:47;101536.94;;;1.84;56.45
37694;BME280;23531;50.122;8.644;2023-03-01T05:40:48;101541.88;;;1.89;56.29
37694;BME280;23531;50.122;8.644;2023-03-01T05:42:51;101535.22;;;1.51;56.54
37694;BME280;23531;50.122;8.644;2023-03-01T05:44:54;101535.25;;;1.40;57.58
37694;BME280;23531;50.122;8.644;2023-03-01T05:46:56;101534.81;;;1.24;58.24
37694;BME280;23531;50.122;8.644;2023-03-01T05:48:58;101523.50;;;1.22;58.36
37694;BME280;23531;50.122;8.644;2023-03-01T05:51:00;101532.78;;;1.05;59.54
37694;BME280;23531;50.122;8.644;2023-03-01T05:53:02;101527.34;;;1.06;58.90
37694;BME280;23531;50.122;8.644;2023-03-01T05:55:04;101530.34;;;1.02;59.57
37694;BME280;23531;50.122;8.644;2023-03-01T05:57:06;101530.47;;;1.23;59.12
37694;BME280;23531;50.122;8.644;2023-03-01T05:59:07;101533.00;;;1.13;59.33
37694;BME280;23531;50.122;8.644;2023-03-01T06:01:12;101528.91;;;1.20;59.42
37694;BME280;23531;50.122;8.644;2023-03-01T06:03:14;101525.19;;;1.12;59.79
37694;BME280;23531;50.122;8.644;2023-03-01T06:05:17;101526.88;;;1.13;59.52
37694;BME280;23531;50.122;8.644;2023-03-01T06:07:18;101530.72;;;1.20;59.78
37694;BME280;23531;50.122;8.644;2023-03-01T06:09:19;101524.41;;;1.43;59.03
37694;BME280;23531;50.122;8.644;2023-03-01T06:11:21;101526.59;;;1.27;58.97
37694;BME280;23531;50.122;8.644;2023-03-01T06:13:22;101526.84;;;1.35;58.97
37694;BME280;23531;50.122;8.644;2023-03-01T06:15:24;101530.00;;;1.06;59.39
37694;BME280;23531;50.122;8.644;2023-03-01T06:17:28;101527.25;;;0.97;60.09
37694;BME280;23531;50.122;8.644;2023-03-01T06:19:30;101530.63;;;0.99;60.57
37694;BME280;23531;50.122;8.644;2023-03-01T06:21:31;101529.03;;;1.19;59.96
37694;BME280;23531;50.122;8.644;2023-03-01T06:23:33;101530.00;;;1.06;59.40
37694;BME280;23531;50.122;8.644;2023-03-01T06:25:34;101532.38;;;1.32;59.58
37694;BME280;23531;50.122;8.644;2023-03-01T06:27:36;101537.09;;;1.06;59.72
37694;BME280;23531;50.122;8.644;2023-03-01T06:29:37;101528.69;;;1.12;59.84
37694;BME280;23531;50.122;8.644;2023-03-01T06:31:38;101532.25;;;1.44;59.77
37694;BME280;23531;50.122;8.644;2023-03-01T06:33:41;101522.69;;;1.53;58.61
37694;BME280;23531;50.122;8.644;2023-03-01T06:35:44;101524.19;;;1.46;58.65
37694;BME280;23531;50.122;8.644;2023-03-01T06:37:46;101525.59;;;1.50;58.82
37694;BME280;23531;50.122;8.644;2023-03-01T06:39:47;101527.94;;;1.75;58.73
37694;BME280;23531;50.122;8.644;2023-03-01T06:41:49;101517.03;;;1.90;58.33
37694;BME280;23531;50.122;8.644;2023-03-01T06:43:50;101515.28;;;1.79;57.66
37694;BME280;23531;50.122;8.644;2023-03-01T06:45:53;101518.88;;;1.78;57.87
37694;BME280;23531;50.122;8.644;2023-03-01T06:48:00;101510.81;;;1.79;57.75
37694;BME280;23531;50.122;8.644;2023-03-01T06:50:03;101516.91;;;1.48;58.28
37694;BME280;23531;50.122;8.644;2023-03-01T06:52:05;101511.69;;;1.69;58.01
37694;BME280;23531;50.122;8.644;2023-03-01T06:54:06;101516.22;;;1.78;58.26
37694;BME280;23531;50.122;8.644;2023-03-01T06:56:07;101516.44;;;1.86;57.68
37694;BME280;23531;50.122;8.644;2023-03-01T06:58:09;101511.94;;;1.66;57.58
37694;BME280;23531;50.122;8.644;2023-03-01T07:00:10;101507.41;;;1.57;58.65
37694;BME280;23531;50.122;8.644;2023-03-01T07:02:12;101506.19;;;1.81;58.08
37694;BME280;23531;50.122;8.644;2023-03-01T07:04:13;101510.66;;;1.81;57.17
37694;BME280;23531;50.122;8.644;2023-03-01T07:06:16;101515.50;;;1.76;58.01
37694;BME280;23531;50.122;8.644;2023-03-01T07:08:17;101512.16;;;1.95;58.07
37694;BME280;23531;50.122;8.644;2023-03-01T07:10:19;101523.97;;;2.02;57.75
37694;BME280;23531;50.122;8.644;2023-03-01T07:12:20;101517.47;;;1.63;57.92
37694;BME280;23531;50.122;8.644;2023-03-01T07:14:21;101523.78;;;1.82;58.27
37694;BME280;23531;50.122;8.644;2023-03-01T07:16:24;101515.66;;;1.95;57.73
37694;BME280;23531;50.122;8.644;2023-03-01T07:18:25;101515.59;;;2.06;57.56
37694;BME280;23531;50.122;8.644;2023-03-01T07:20:26;101525.28;;;1.75;57.08
37694;BME280;23531;50.122;8.644;2023-03-01T07:22:29;101511.78;;;1.35;58.80
37694;BME280;23531;50.122;8.644;2023-03-01T07:24:30;101513.50;;;1.68;58.93
37694;BME280;23531;50.122;8.644;2023-03-01T07:26:32;101519.59;;;1.80;58.56
37694;BME280;23531;50.122;8.644;2023-03-01T07:28:33;101513.34;;;1.70;57.72
37694;BME280;23531;50.122;8.644;2023-03-01T07:30:35;101502.69;;;1.81;58.27
37694;BME280;23531;50.122;8.644;2023-03-01T07:32:37;101500.09;;;2.02;58.17
37694;BME280;23531;50.122;8.644;2023-03-01T07:34:38;101501.38;;;2.07;57.49
37694;BME280;23531;50.122;8.644;2023-03-01T07:36:39;101509.16;;;1.99;57.54
37694;BME280;23531;50.122;8.644;2023-03-01T07:38:44;101498.66;;;1.98;57.52
37694;BME280;23531;50.122;8.644;2023-03-01T07:40:45;101506.13;;;1.93;57.49
37694;BME280;23531;50.122;8.644;2023-03-01T07:42:47;101503.78;;;1.58;58.52
37694;BME280;23531;50.122;8.644;2023-03-01T07:44:48;101504.53;;;1.80;58.55
37694;BME280;23531;50.122;8.644;2023-03-01T07:46:49;101505.22;;;1.82;58.13
37694;BME280;23531;50.122;8.644;2023-03-01T07:48:52;101501.28;;;1.77;58.20
37694;BME280;23531;50.122;8.644;2023-03-01T07:50:53;101502.34;;;1.86;58.03
37694;BME280;23531;50.122;8.644;2023-03-01T07:52:54;101500.72;;;1.94;57.99
37694;BME280;23531;50.122;8.644;2023-03-01T07:54:57;101505.66;;;1.99;57.75
37694;BME280;23531;50.122;8.644;2023-03-01T07:56:58;101508.69;;;1.94;57.79
37694;BME280;23531;50.122;8.644;2023-03-01T07:59:00;101510.91;;;2.10;57.56
37694;BME280;23531;50.122;8.644;2023-03-01T08:01:01;101511.34;;;2.15;57.48
37694;BME280;23531;50.122;8.644;2023-03-01T08:03:03;101508.84;;;2.13;57.52
37694;BME280;23531;50.122;8.644;2023-03-01T08:05:04;101503.06;;;2.08;57.26
37694;BME280;23531;50.122;8.644;2023-03-01T08:07:06;101502.53;;;1.94;57.51
37694;BME280;23531;50.122;8.644;2023-03-01T08:09:07;101505.66;;;1.99;57.55
37694;BME280;23531;50.122;8.644;2023-03-01T08:11:11;101502.09;;;2.09;57.65
37694;BME280;23531;50.122;8.644;2023-03-01T08:13:13;101502.28;;;1.97;57.29
37694;BME280;23531;50.122;8.644;2023-03-01T08:15:14;101504.38;;;2.14;57.57
37694;BME280;23531;50.122;8.644;2023-03-01T08:17:16;101504.44;;;2.24;57.32
37694;BME280;23531;50.122;8.644;2023-03-01T08:19:17;101497.69;;;2.19;57.31
37694;BME280;23531;50.122;8.644;2023-03-01T08:21:19;101502.69;;;2.34;57.31
37694;BME280;23531;50.122;8.644;2023-03-01T08:23:20;101495.91;;;2.50;57.75
37694;BME280;23531;50.122;8.644;2023-03-01T08:25:21;101491.91;;;2.56;57.33
37694;BME280;23531;50.122;8.644;2023-03-01T08:27:24;101495.56;;;2.65;57.14
37694;BME280;23531;50.122;8.644;2023-03-01T08:29:25;101490.44;;;2.73;57.33
37694;BME280;23531;50.122;8.644;2023-03-01T08:31:27;101485.56;;;2.78;56.47
37694;BME280;23531;50.122;8.644;2023-03-01T08:33:30;101484.19;;;2.83;56.38
37694;BME280;23531;50.122;8.644;2023-03-01T08:35:31;101485.16;;;2.82;55.81
37694;BME280;23531;50.122;8.644;2023-03-01T08:37:32;101474.94;;;2.78;55.94
37694;BME280;23531;50.122;8.644;2023-03-01T08:39:33;101474.69;;;2.81;55.65
37694;BME280;23531;50.122;8.644;2023-03-01T08:41:35;101479.44;;;2.87;55.48
37694;BME280;23531;50.122;8.644;2023-03-01T08:43:37;101478.59;;;2.86;55.24
37694;BME280;23531;50.122;8.644;2023-03-01T08:45:39;101477.94;;;2.94;55.38
37694;BME280;23531;50.122;8.644;2023-03-01T08:47:40;101478.25;;;3.01;55.44
37694;BME280;23531;50.122;8.644;2023-03-01T08:49:41;101472.31;;;2.87;55.58
37694;BME280;23531;50.122;8.644;2023-03-01T08:51:43;101466.63;;;2.92;55.30
37694;BME280;23531;50.122;8.644;2023-03-01T08:53:44;101474.03;;;2.98;54.88
37694;BME280;23531;50.122;8.644;2023-03-01T08:55:45;101462.53;;;2.88;55.15
37694;BME280;23531;50.122;8.644;2023-03-01T08:57:47;101458.91;;;2.89;55.47
37694;BME280;23531;50.122;8.644;2023-03-01T08:59:49;101457.84;;;3.01;55.44
37694;BME280;23531;50.122;8.644;2023-03-01T09:01:50;101455.19;;;3.01;54.53
37694;BME280;23531;50.122;8.644;2023-03-01T09:03:52;101457.28;;;3.07;54.30
37694;BME280;23531;50.122;8.644;2023-03-01T09:05:53;101462.06;;;3.13;54.34
37694;BME280;23531;50.122;8.644;2023-03-01T09:08:00;101456.63;;;3.15;53.59
37694;BME280;23531;50.122;8.644;2023-03-01T09:10:01;101461.50;;;3.19;53.47
37694;BME280;23531;50.122;8.644;2023-03-01T09:12:03;101456.63;;;3.24;53.60
37694;BME280;23531;50.122;8.644;2023-03-01T09:14:04;101453.28;;;3.32;53.48
37694;BME280;23531;50.122;8.644;2023-03-01T09:16:07;101442.78;;;3.31;52.88
37694;BME280;23531;50.122;8.644;2023-03-01T09:18:09;101442.09;;;3.48;53.51
37694;BME280;23531;50.122;8.644;2023-03-01T09:20:10;101446.72;;;3.46;52.24
37694;BME280;23531;50.122;8.644;2023-03-01T09:22:12;101446.53;;;3.18;53.36
37694;BME280;23531;50.122;8.644;2023-03-01T09:24:13;101439.97;;;3.22;53.37
37694;BME280;23531;50.122;8.644;2023-03-01T09:26:15;101431.59;;;3.46;52.96
37694;BME280;23531;50.122;8.644;2023-03-01T09:28:19;101433.16;;;3.58;52.46
37694;BME280;23531;50.122;8.644;2023-03-01T09:30:23;101429.78;;;3.56;51.71
37694;BME280;23531;50.122;8.644;2023-03-01T09:32:26;101423.47;;;3.67;51.72
37694;BME280;23531;50.122;8.644;2023-03-01T09:34:27;101426.81;;;3.79;52.32
37694;BME280;23531;50.122;8.644;2023-03-01T09:36:29;101421.25;;;3.72;51.52
37694;BME280;23531;50.122;8.644;2023-03-01T09:38:30;101424.19;;;3.69;51.39
37694;BME280;23531;50.122;8.644;2023-03-01T09:40:32;101419.28;;;3.64;51.63
37694;BME280;23531;50.122;8.644;2023-03-01T09:42:34;101423.19;;;3.70;51.53
37694;BME280;23531;50.122;8.644;2023-03-01T09:44:36;101422.63;;;3.76;51.13
37694;BME280;23531;50.122;8.644;2023-03-01T09:46:40;101431.31;;;3.78;51.37
37694;BME280;23531;50.122;8.644;2023-03-01T09:48:44;101420.66;;;3.78;51.11
37694;BME280;23531;50.122;8.644;2023-03-01T09:50:47;101419.81;;;3.87;51.75
37694;BME280;23531;50.122;8.644;2023-03-01T09:52:50;101413.66;;;3.87;51.30
37694;BME280;23531;50.122;8.644;2023-03-01T09:54:54;101411.41;;;3.92;50.97
37694;BME280;23531;50.122;8.644;2023-03-01T09:56:59;101408.88;;;3.90;51.18
37694;BME280;23531;50.122;8.644;2023-03-01T09:59:05;101412.22;;;4.02;51.15
37694;BME280;23531;50.122;8.644;2023-03-01T10:01:20;101414.44;;;4.07;50.97
37694;BME280;23531;50.122;8.644;2023-03-01T10:03:26;101408.13;;;4.08;50.54
37694;BME280;23531;50.122;8.644;2023-03-01T10:05:36;101408.41;;;4.14;50.83
37694;BME280;23531;50.122;8.644;2023-03-01T10:07:40;101399.97;;;4.19;50.13
37694;BME280;23531;50.122;8.644;2023-03-01T10:09:46;101395.22;;;4.22;50.00
37694;BME280;23531;50.122;8.644;2023-03-01T10:11:48;101410.91;;;4.25;50.26
37694;BME280;23531;50.122;8.644;2023-03-01T10:13:54;101403.16;;;4.32;49.92
37694;BME280;23531;50.122;8.644;2023-03-01T10:15:57;101408.66;;;4.21;49.82
37694;BME280;23531;50.122;8.644;2023-03-01T10:18:00;101407.78;;;4.30;49.80
37694;BME280;23531;50.122;8.644;2023-03-01T10:20:12;101397.00;;;4.31;49.71
37694;BME280;23531;50.122;8.644;2023-03-01T10:22:17;101399.97;;;4.28;50.00
37694;BME280;23531;50.122;8.644;2023-03-01T10:24:21;101397.84;;;4.32;49.37
37694;BME280;23531;50.122;8.644;2023-03-01T10:26:26;101400.91;;;4.37;49.29
37694;BME280;23531;50.122;8.644;2023-03-01T10:28:35;101397.78;;;4.51;49.46
37694;BME280;23531;50.122;8.644;2023-03-01T10:30:42;101393.25;;;4.61;49.44
37694;BME280;23531;50.122;8.644;2023-03-01T10:32:44;101403.72;;;4.63;49.26
37694;BME280;23531;50.122;8.644;2023-03-01T10:34:45;101389.59;;;4.62;49.24
37694;BME280;23531;50.122;8.644;2023-03-01T10:36:48;101388.22;;;4.58;49.00
37694;BME280;23531;50.122;8.644;2023-03-01T10:38:52;101387.66;;;4.55;48.84
37694;BME280;23531;50.122;8.644;2023-03-01T10:40:55;101380.13;;;4.41;49.06
37694;BME280;23531;50.122;8.644;2023-03-01T10:42:57;101391.53;;;4.33;49.38
37694;BME280;23531;50.122;8.644;2023-03-01T10:45:14;101392.53;;;4.32;50.24
37694;BME280;23531;50.122;8.644;2023-03-01T10:47:17;101380.41;;;4.47;49.69